sensor_id;sensor_type;location;lat;lon;timestamp;pressure;altitude;pressure_sealevel;temperature;humidity
21706;BME280;11014;53.076;18.208;2023-03-21T00:00:56;101212.69;;;13.22;66.44
21706;BME280;11014;53.076;18.208;2023-03-21T00:35:08;101192.47;;;12.30;71.25
21706;BME280;11014;53.076;18.208;2023-03-21T00:37:57;101188.16;;;12.29;71.45
21706;BME280;11014;53.076;18.208;2023-03-21T00:40:26;101189.19;;;12.28;71.58
21706;BME280;11014;53.076;18.208;2023-03-21T00:43:03;101196.69;;;12.26;71.92
21706;BME280;11014;53.076;18.208;2023-03-21T00:45:33;101189.13;;;12.34;71.99
21706;BME280;11014;53.076;18.208;2023-03-21T00:48:02;101192.63;;;12.35;72.13
21706;BME280;11014;53.076;18.208;2023-03-21T00:50:31;101192.53;;;12.41;72.20
21706;BME280;11014;53.076;18.208;2023-03-21T00:53:01;101195.16;;;12.48;71.67
21706;BME280;11014;53.076;18.208;2023-03-21T00:55:31;101193.03;;;12.50;71.83
21706;BME280;11014;53.076;18.208;2023-03-21T00:58:00;101190.94;;;12.52;71.84
21706;BME280;11014;53.076;18.208;2023-03-21T01:00:30;101189.31;;;12.51;71.89
21706;BME280;11014;53.076;18.208;2023-03-21T01:03:00;101192.44;;;12.48;71.79
21706;BME280;11014;53.076;18.208;2023-03-21T01:05:52;101187.06;;;12.48;71.74
21706;BME280;11014;53.076;18.208;2023-03-21T01:08:42;101192.00;;;12.51;71.75
21706;BME280;11014;53.076;18.208;2023-03-21T01:11:23;101196.88;;;12.42;71.75
21706;BME280;11014;53.076;18.208;2023-03-21T01:13:53;101188.19;;;12.40;71.72
21706;BME280;11014;53.076;18.208;2023-03-21T01:16:35;101196.06;;;12.42;71.83
21706;BME280;11014;53.076;18.208;2023-03-21T01:19:09;101195.59;;;12.45;71.93
21706;BME280;11014;53.076;18.208;2023-03-21T01:21:52;101190.22;;;12.45;71.61
21706;BME280;11014;53.076;18.208;2023-03-21T01:24:21;101186.44;;;12.46;71.75
21706;BME280;11014;53.076;18.208;2023-03-21T01:26:50;101184.81;;;12.45;71.63
21706;BME280;11014;53.076;18.208;2023-03-21T01:29:18;101189.16;;;12.46;71.44
21706;BME280;11014;53.076;18.208;2023-03-21T01:31:48;101180.59;;;12.49;71.70
21706;BME280;11014;53.076;18.208;2023-03-21T01:34:16;101180.16;;;12.52;71.73
21706;BME280;11014;53.076;18.208;2023-03-21T01:36:45;101177.00;;;12.55;71.29
21706;BME280;11014;53.076;18.208;2023-03-21T01:39:18;101185.09;;;12.55;71.39
21706;BME280;11014;53.076;18.208;2023-03-21T01:41:49;101183.44;;;12.54;71.67
21706;BME280;11014;53.076;18.208;2023-03-21T01:44:27;101176.03;;;12.49;71.57
21706;BME280;11014;53.076;18.208;2023-03-21T01:46:56;101179.81;;;12.48;71.36
21706;BME280;11014;53.076;18.208;2023-03-21T01:49:48;101177.31;;;12.47;71.46
21706;BME280;11014;53.076;18.208;2023-03-21T01:52:26;101177.31;;;12.47;71.93
21706;BME280;11014;53.076;18.208;2023-03-21T01:55:09;101172.97;;;12.46;71.59
21706;BME280;11014;53.076;18.208;2023-03-21T01:57:57;101177.78;;;12.44;71.98
21706;BME280;11014;53.076;18.208;2023-03-21T02:01:09;101178.97;;;12.48;71.72
21706;BME280;11014;53.076;18.208;2023-03-21T02:03:45;101175.22;;;12.49;71.93
21706;BME280;11014;53.076;18.208;2023-03-21T02:07:12;101174.88;;;12.57;71.91
21706;BME280;11014;53.076;18.208;2023-03-21T02:09:54;101176.03;;;12.49;71.57
21706;BME280;11014;53.076;18.208;2023-03-21T02:12:25;101176.94;;;12.43;72.01
21706;BME280;11014;53.076;18.208;2023-03-21T02:14:54;101177.78;;;12.44;72.21
21706;BME280;11014;53.076;18.208;2023-03-21T02:20:23;101186.00;;;12.49;72.24
21706;BME280;11014;53.076;18.208;2023-03-21T02:23:40;101185.47;;;12.59;71.93
21706;BME280;11014;53.076;18.208;2023-03-21T02:28:53;101185.91;;;12.56;71.77
21706;BME280;11014;53.076;18.208;2023-03-21T02:40:05;101180.91;;;12.59;71.84
21706;BME280;11014;53.076;18.208;2023-03-21T02:43:19;101183.59;;;12.59;72.01
21706;BME280;11014;53.076;18.208;2023-03-21T02:46:08;101179.25;;;12.58;71.67
21706;BME280;11014;53.076;18.208;2023-03-21T02:51:40;101184.50;;;12.53;71.94
21706;BME280;11014;53.076;18.208;2023-03-21T02:54:21;101177.31;;;12.47;72.14
21706;BME280;11014;53.076;18.208;2023-03-21T02:57:10;101178.47;;;12.39;72.05
21706;BME280;11014;53.076;18.208;2023-03-21T02:59:40;101175.88;;;12.33;72.31
21706;BME280;11014;53.076;18.208;2023-03-21T03:02:27;101175.88;;;12.33;72.58
21706;BME280;11014;53.076;18.208;2023-03-21T03:04:56;101186.75;;;12.26;72.56
21706;BME280;11014;53.076;18.208;2023-03-21T03:07:29;101170.78;;;12.25;72.75
21706;BME280;11014;53.076;18.208;2023-03-21T03:10:14;101180.09;;;12.29;72.77
21706;BME280;11014;53.076;18.208;2023-03-21T03:16:20;101178.44;;;12.28;72.68
21706;BME280;11014;53.076;18.208;2023-03-21T03:18:51;101187.19;;;12.23;72.49
21706;BME280;11014;53.076;18.208;2023-03-21T03:21:29;101190.56;;;12.19;72.75
21706;BME280;11014;53.076;18.208;2023-03-21T03:24:18;101187.28;;;12.17;72.85
21706;BME280;11014;53.076;18.208;2023-03-21T03:26:54;101185.28;;;12.12;72.96
21706;BME280;11014;53.076;18.208;2023-03-21T03:29:29;101190.28;;;12.09;72.71
21706;BME280;11014;53.076;18.208;2023-03-21T03:32:09;101183.25;;;12.08;72.83
21706;BME280;11014;53.076;18.208;2023-03-21T03:34:45;101180.78;;;12.06;72.47
21706;BME280;11014;53.076;18.208;2023-03-21T03:37:24;101187.91;;;12.01;72.63
21706;BME280;11014;53.076;18.208;2023-03-21T03:40:00;101182.97;;;11.98;72.73
21706;BME280;11014;53.076;18.208;2023-03-21T03:42:37;101186.72;;;11.97;72.50
21706;BME280;11014;53.076;18.208;2023-03-21T03:45:19;101186.72;;;11.97;72.80
21706;BME280;11014;53.076;18.208;2023-03-21T03:48:01;101184.22;;;11.95;72.66
21706;BME280;11014;53.076;18.208;2023-03-21T03:50:40;101188.19;;;11.93;72.55
21706;BME280;11014;53.076;18.208;2023-03-21T03:53:33;101190.31;;;11.91;72.76
21706;BME280;11014;53.076;18.208;2023-03-21T03:56:06;101189.69;;;11.88;72.62
21706;BME280;11014;53.076;18.208;2023-03-21T03:58:39;101189.69;;;11.88;72.46
21706;BME280;11014;53.076;18.208;2023-03-21T04:01:19;101192.38;;;11.88;72.26
21706;BME280;11014;53.076;18.208;2023-03-21T04:03:49;101193.44;;;11.87;72.31
21706;BME280;11014;53.076;18.208;2023-03-21T04:06:30;101187.22;;;11.87;72.35
21706;BME280;11014;53.076;18.208;2023-03-21T04:09:00;101186.66;;;11.85;72.44
21706;BME280;11014;53.076;18.208;2023-03-21T04:11:40;101190.97;;;11.86;72.32
21706;BME280;11014;53.076;18.208;2023-03-21T04:14:27;101183.13;;;11.84;72.22
21706;BME280;11014;53.076;18.208;2023-03-21T04:17:10;101186.84;;;11.83;72.54
21706;BME280;11014;53.076;18.208;2023-03-21T04:19:39;101184.00;;;11.78;72.28
21706;BME280;11014;53.076;18.208;2023-03-21T04:22:08;101189.19;;;11.80;72.44
21706;BME280;11014;53.076;18.208;2023-03-21T04:24:39;101186.25;;;11.81;72.33
21706;BME280;11014;53.076;18.208;2023-03-21T04:27:09;101193.16;;;11.77;72.17
21706;BME280;11014;53.076;18.208;2023-03-21T04:29:41;101196.88;;;11.76;72.25
21706;BME280;11014;53.076;18.208;2023-03-21T04:32:35;101204.38;;;11.74;72.61
21706;BME280;11014;53.076;18.208;2023-03-21T04:35:34;101201.06;;;11.72;72.26
21706;BME280;11014;53.076;18.208;2023-03-21T04:38:06;101194.03;;;11.71;72.25
21706;BME280;11014;53.076;18.208;2023-03-21T04:40:35;101206.88;;;11.69;72.29
21706;BME280;11014;53.076;18.208;2023-03-21T04:43:04;101215.97;;;11.68;72.36
21706;BME280;11014;53.076;18.208;2023-03-21T04:45:32;101211.03;;;11.65;72.63
21706;BME280;11014;53.076;18.208;2023-03-21T04:48:01;101211.50;;;11.62;72.48
21706;BME280;11014;53.076;18.208;2023-03-21T04:50:31;101203.66;;;11.61;72.61
21706;BME280;11014;53.076;18.208;2023-03-21T04:56:44;101208.66;;;11.57;72.68
21706;BME280;11014;53.076;18.208;2023-03-21T04:59:15;101207.88;;;11.50;72.91
21706;BME280;11014;53.076;18.208;2023-03-21T05:01:44;101213.25;;;11.50;72.69
21706;BME280;11014;53.076;18.208;2023-03-21T05:04:13;101212.06;;;11.46;73.24
21706;BME280;11014;53.076;18.208;2023-03-21T05:06:44;101204.59;;;11.48;73.06
21706;BME280;11014;53.076;18.208;2023-03-21T05:09:13;101209.53;;;11.51;73.10
21706;BME280;11014;53.076;18.208;2023-03-21T05:11:42;101213.88;;;11.52;73.26
21706;BME280;11014;53.076;18.208;2023-03-21T05:14:16;101218.81;;;11.55;73.17
21706;BME280;11014;53.076;18.208;2023-03-21T05:16:46;101226.25;;;11.53;73.36
21706;BME280;11014;53.076;18.208;2023-03-21T05:19:50;101228.94;;;11.53;73.11
21706;BME280;11014;53.076;18.208;2023-03-21T05:22:20;101224.63;;;11.52;73.38
21706;BME280;11014;53.076;18.208;2023-03-21T05:24:52;101227.91;;;11.54;73.60
21706;BME280;11014;53.076;18.208;2023-03-21T05:27:41;101230.75;;;11.59;73.31
21706;BME280;11014;53.076;18.208;2023-03-21T05:30:19;101233.47;;;11.59;73.42
21706;BME280;11014;53.076;18.208;2023-03-21T05:32:50;101240.06;;;11.63;73.28
21706;BME280;11014;53.076;18.208;2023-03-21T05:35:20;101242.31;;;11.66;73.30
21706;BME280;11014;53.076;18.208;2023-03-21T05:37:49;101239.19;;;11.69;73.00
21706;BME280;11014;53.076;18.208;2023-03-21T05:40:18;101242.50;;;11.71;73.32
21706;BME280;11014;53.076;18.208;2023-03-21T05:42:47;101249.06;;;11.75;73.27
21706;BME280;11014;53.076;18.208;2023-03-21T05:45:20;101247.13;;;11.82;72.83
21706;BME280;11014;53.076;18.208;2023-03-21T05:47:50;101249.38;;;11.85;73.18
21706;BME280;11014;53.076;18.208;2023-03-21T05:50:23;101251.16;;;11.92;72.79
21706;BME280;11014;53.076;18.208;2023-03-21T05:53:24;101261.19;;;12.03;72.78
21706;BME280;11014;53.076;18.208;2023-03-21T05:55:53;101268.22;;;12.04;72.80
21706;BME280;11014;53.076;18.208;2023-03-21T05:58:50;101265.09;;;12.07;72.21
21706;BME280;11014;53.076;18.208;2023-03-21T06:01:20;101265.09;;;12.07;72.28
21706;BME280;11014;53.076;18.208;2023-03-21T06:04:07;101269.78;;;12.11;72.39
21706;BME280;11014;53.076;18.208;2023-03-21T06:06:36;101269.34;;;12.14;72.50
21706;BME280;11014;53.076;18.208;2023-03-21T06:09:05;101262.31;;;12.13;72.31
21706;BME280;11014;53.076;18.208;2023-03-21T06:11:36;101262.69;;;12.17;72.41
21706;BME280;11014;53.076;18.208;2023-03-21T06:14:27;101262.81;;;12.22;72.28
21706;BME280;11014;53.076;18.208;2023-03-21T06:17:24;101260.50;;;12.25;72.02
21706;BME280;11014;53.076;18.208;2023-03-21T06:20:03;101268.34;;;12.27;71.87
21706;BME280;11014;53.076;18.208;2023-03-21T06:22:43;101269.63;;;12.24;71.80
21706;BME280;11014;53.076;18.208;2023-03-21T06:25:12;101278.41;;;12.20;72.20
21706;BME280;11014;53.076;18.208;2023-03-21T06:27:40;101274.28;;;12.17;71.97
21706;BME280;11014;53.076;18.208;2023-03-21T06:30:10;101277.94;;;12.23;72.04
21706;BME280;11014;53.076;18.208;2023-03-21T06:32:53;101287.38;;;12.32;71.97
21706;BME280;11014;53.076;18.208;2023-03-21T06:35:22;101287.53;;;12.37;71.74
21706;BME280;11014;53.076;18.208;2023-03-21T06:37:51;101292.22;;;12.41;71.52
21706;BME280;11014;53.076;18.208;2023-03-21T06:40:21;101294.91;;;12.41;71.19
21706;BME280;11014;53.076;18.208;2023-03-21T06:42:51;101298.44;;;12.42;71.33
21706;BME280;11014;53.076;18.208;2023-03-21T06:45:20;101298.00;;;12.45;70.84
21706;BME280;11014;53.076;18.208;2023-03-21T06:47:48;101293.78;;;12.49;70.93
21706;BME280;11014;53.076;18.208;2023-03-21T06:50:54;101297.41;;;12.43;70.38
21706;BME280;11014;53.076;18.208;2023-03-21T06:53:25;101296.78;;;12.41;70.48
21706;BME280;11014;53.076;18.208;2023-03-21T06:56:11;101298.44;;;12.42;70.17
21706;BME280;11014;53.076;18.208;2023-03-21T06:58:41;101300.91;;;12.43;69.93
21706;BME280;11014;53.076;18.208;2023-03-21T07:01:22;101298.00;;;12.45;70.17
21706;BME280;11014;53.076;18.208;2023-03-21T07:04:00;101308.91;;;12.50;69.82
21706;BME280;11014;53.076;18.208;2023-03-21T07:06:30;101309.50;;;12.52;69.97
21706;BME280;11014;53.076;18.208;2023-03-21T07:08:59;101311.16;;;12.53;69.88
21706;BME280;11014;53.076;18.208;2023-03-21T07:11:35;101315.72;;;12.53;69.50
21706;BME280;11014;53.076;18.208;2023-03-21T07:14:05;101320.41;;;12.57;69.60
21706;BME280;11014;53.076;18.208;2023-03-21T07:16:35;101321.03;;;12.59;69.28
21706;BME280;11014;53.076;18.208;2023-03-21T07:19:03;101319.31;;;12.65;69.59
21706;BME280;11014;53.076;18.208;2023-03-21T07:21:32;101320.72;;;12.67;69.26
21706;BME280;11014;53.076;18.208;2023-03-21T07:24:00;101320.09;;;12.65;69.11
21706;BME280;11014;53.076;18.208;2023-03-21T07:26:29;101318.03;;;12.67;68.70
21706;BME280;11014;53.076;18.208;2023-03-21T07:28:59;101330.88;;;12.65;68.82
21706;BME280;11014;53.076;18.208;2023-03-21T07:31:27;101320.72;;;12.67;68.90
21706;BME280;11014;53.076;18.208;2023-03-21T07:33:56;101326.25;;;12.72;68.76
21706;BME280;11014;53.076;18.208;2023-03-21T07:36:25;101324.53;;;12.78;68.15
21706;BME280;11014;53.076;18.208;2023-03-21T07:38:55;101329.91;;;12.78;68.04
21706;BME280;11014;53.076;18.208;2023-03-21T07:41:24;101322.19;;;12.81;67.79
21706;BME280;11014;53.076;18.208;2023-03-21T07:43:53;101329.34;;;12.87;67.76
21706;BME280;11014;53.076;18.208;2023-03-21T07:46:21;101331.16;;;12.93;67.30
21706;BME280;11014;53.076;18.208;2023-03-21T07:48:50;101333.84;;;12.93;67.03
21706;BME280;11014;53.076;18.208;2023-03-21T07:51:19;101332.19;;;12.92;67.15
21706;BME280;11014;53.076;18.208;2023-03-21T07:53:47;101335.94;;;12.91;66.51
21706;BME280;11014;53.076;18.208;2023-03-21T07:56:16;101334.66;;;12.94;66.70
21706;BME280;11014;53.076;18.208;2023-03-21T07:58:45;101335.50;;;12.94;67.05
21706;BME280;11014;53.076;18.208;2023-03-21T08:01:13;101334.28;;;12.90;66.53
21706;BME280;11014;53.076;18.208;2023-03-21T08:03:42;101339.69;;;12.90;66.78
21706;BME280;11014;53.076;18.208;2023-03-21T08:06:11;101339.59;;;12.97;66.71
21706;BME280;11014;53.076;18.208;2023-03-21T08:08:40;101350.28;;;13.03;66.60
21706;BME280;11014;53.076;18.208;2023-03-21T08:11:10;101345.09;;;13.09;66.56
21706;BME280;11014;53.076;18.208;2023-03-21T08:13:39;101348.13;;;13.12;66.19
21706;BME280;11014;53.076;18.208;2023-03-21T08:16:08;101343.34;;;13.26;66.32
21706;BME280;11014;53.076;18.208;2023-03-21T08:18:36;101351.25;;;13.27;65.89
21706;BME280;11014;53.076;18.208;2023-03-21T08:21:05;101352.78;;;13.35;66.14
21706;BME280;11014;53.076;18.208;2023-03-21T08:23:36;101352.91;;;13.40;65.81
21706;BME280;11014;53.076;18.208;2023-03-21T08:26:05;101349.03;;;13.36;65.56
21706;BME280;11014;53.076;18.208;2023-03-21T08:28:34;101348.09;;;13.42;64.91
21706;BME280;11014;53.076;18.208;2023-03-21T08:31:08;101353.84;;;13.45;64.54
21706;BME280;11014;53.076;18.208;2023-03-21T08:33:37;101361.75;;;13.47;64.41
21706;BME280;11014;53.076;18.208;2023-03-21T08:36:07;101357.03;;;13.54;63.63
21706;BME280;11014;53.076;18.208;2023-03-21T08:38:35;101366.09;;;13.59;63.19
21706;BME280;11014;53.076;18.208;2023-03-21T08:41:04;101371.97;;;13.68;62.99
21706;BME280;11014;53.076;18.208;2023-03-21T08:43:33;101362.81;;;13.69;62.34
21706;BME280;11014;53.076;18.208;2023-03-21T08:46:15;101372.47;;;13.77;62.40
21706;BME280;11014;53.076;18.208;2023-03-21T08:48:44;101370.72;;;13.82;62.13
21706;BME280;11014;53.076;18.208;2023-03-21T08:51:13;101375.03;;;13.83;62.17
21706;BME280;11014;53.076;18.208;2023-03-21T08:53:41;101373.06;;;13.90;61.22
21706;BME280;11014;53.076;18.208;2023-03-21T08:56:11;101374.22;;;13.94;59.99
21706;BME280;11014;53.076;18.208;2023-03-21T08:58:40;101384.09;;;14.00;59.34
21706;BME280;11014;53.076;18.208;2023-03-21T09:01:09;101383.50;;;14.10;58.71
21706;BME280;11014;53.076;18.208;2023-03-21T09:03:42;101382.56;;;14.16;57.29
21706;BME280;11014;53.076;18.208;2023-03-21T09:06:11;101383.28;;;14.23;57.12
21706;BME280;11014;53.076;18.208;2023-03-21T09:08:41;101392.69;;;14.20;56.86
21706;BME280;11014;53.076;18.208;2023-03-21T09:11:10;101388.31;;;14.19;56.24
21706;BME280;11014;53.076;18.208;2023-03-21T09:13:39;101397.59;;;14.23;56.21
21706;BME280;11014;53.076;18.208;2023-03-21T09:16:08;101390.69;;;14.27;55.49
21706;BME280;11014;53.076;18.208;2023-03-21T09:18:36;101388.22;;;14.26;54.48
21706;BME280;11014;53.076;18.208;2023-03-21T09:21:22;101394.56;;;14.20;55.03
21706;BME280;11014;53.076;18.208;2023-03-21T09:23:53;101391.38;;;14.11;55.45
21706;BME280;11014;53.076;18.208;2023-03-21T09:26:24;101397.84;;;13.99;54.99
21706;BME280;11014;53.076;18.208;2023-03-21T09:28:54;101394.19;;;14.05;55.59
21706;BME280;11014;53.076;18.208;2023-03-21T09:31:23;101392.78;;;14.02;55.56
21706;BME280;11014;53.076;18.208;2023-03-21T09:33:52;101394.66;;;14.13;54.18
21706;BME280;11014;53.076;18.208;2023-03-21T09:36:21;101391.97;;;14.25;53.02
21706;BME280;11014;53.076;18.208;2023-03-21T09:38:53;101396.78;;;14.35;52.54
21706;BME280;11014;53.076;18.208;2023-03-21T09:44:04;101390.09;;;14.49;51.40
21706;BME280;11014;53.076;18.208;2023-03-21T09:47:02;101384.56;;;14.44;51.49
21706;BME280;11014;53.076;18.208;2023-03-21T09:49:42;101391.38;;;14.58;52.27
21706;BME280;11014;53.076;18.208;2023-03-21T09:52:21;101397.78;;;14.80;52.52
21706;BME280;11014;53.076;18.208;2023-03-21T09:54:56;101389.50;;;14.98;51.70
21706;BME280;11014;53.076;18.208;2023-03-21T09:57:40;101390.34;;;14.87;50.55
21706;BME280;11014;53.076;18.208;2023-03-21T10:00:15;101392.94;;;14.94;51.47
21706;BME280;11014;53.076;18.208;2023-03-21T10:02:53;101392.84;;;14.89;52.75
21706;BME280;11014;53.076;18.208;2023-03-21T10:05:30;101399.78;;;14.73;51.77
21706;BME280;11014;53.076;18.208;2023-03-21T10:08:18;101404.91;;;14.46;51.61
21706;BME280;11014;53.076;18.208;2023-03-21T10:11:00;101400.69;;;14.50;52.96
21706;BME280;11014;53.076;18.208;2023-03-21T10:14:04;101401.47;;;14.51;53.51
21706;BME280;11014;53.076;18.208;2023-03-21T10:16:39;101395.59;;;14.54;53.58
21706;BME280;11014;53.076;18.208;2023-03-21T10:19:14;101398.44;;;14.59;53.42
21706;BME280;11014;53.076;18.208;2023-03-21T10:21:47;101401.72;;;14.61;53.02
21706;BME280;11014;53.076;18.208;2023-03-21T10:24:31;101408.16;;;14.71;52.72
21706;BME280;11014;53.076;18.208;2023-03-21T10:27:02;101399.66;;;14.79;52.04
21706;BME280;11014;53.076;18.208;2023-03-21T10:29:46;101405.72;;;14.98;51.92
21706;BME280;11014;53.076;18.208;2023-03-21T10:32:16;101405.44;;;15.11;51.30
21706;BME280;11014;53.076;18.208;2023-03-21T10:34:54;101407.13;;;15.01;50.92
21706;BME280;11014;53.076;18.208;2023-03-21T10:37:24;101403.47;;;15.07;51.14
21706;BME280;11014;53.076;18.208;2023-03-21T10:39:54;101401.03;;;15.22;50.89
21706;BME280;11014;53.076;18.208;2023-03-21T10:42:27;101407.19;;;15.17;50.65
21706;BME280;11014;53.076;18.208;2023-03-21T10:44:57;101396.06;;;15.30;50.26
21706;BME280;11014;53.076;18.208;2023-03-21T10:47:30;101403.91;;;15.43;49.35
21706;BME280;11014;53.076;18.208;2023-03-21T10:50:05;101400.22;;;15.50;48.25
21706;BME280;11014;53.076;18.208;2023-03-21T10:52:49;101405.84;;;15.60;48.19
21706;BME280;11014;53.076;18.208;2023-03-21T10:55:21;101401.50;;;15.92;47.89
21706;BME280;11014;53.076;18.208;2023-03-21T10:58:03;101400.59;;;15.86;48.28
21706;BME280;11014;53.076;18.208;2023-03-21T11:00:55;101395.00;;;15.93;47.68
21706;BME280;11014;53.076;18.208;2023-03-21T11:03:35;101399.78;;;15.86;46.51
21706;BME280;11014;53.076;18.208;2023-03-21T11:08:38;101394.69;;;15.73;46.60
21706;BME280;11014;53.076;18.208;2023-03-21T11:11:26;101394.19;;;15.76;46.88
21706;BME280;11014;53.076;18.208;2023-03-21T11:14:00;101388.09;;;15.69;46.84
21706;BME280;11014;53.076;18.208;2023-03-21T11:16:42;101392.88;;;15.78;46.63
21706;BME280;11014;53.076;18.208;2023-03-21T11:19:15;101398.66;;;15.82;46.56
21706;BME280;11014;53.076;18.208;2023-03-21T11:21:45;101387.88;;;15.87;46.33
21706;BME280;11014;53.076;18.208;2023-03-21T11:24:18;101386.50;;;15.84;46.12
21706;BME280;11014;53.076;18.208;2023-03-21T11:26:48;101384.84;;;16.00;46.58
21706;BME280;11014;53.076;18.208;2023-03-21T11:29:45;101379.38;;;16.33;44.90
21706;BME280;11014;53.076;18.208;2023-03-21T11:32:24;101380.44;;;16.32;44.70
21706;BME280;11014;53.076;18.208;2023-03-21T11:35:24;101380.50;;;16.37;44.61
21706;BME280;11014;53.076;18.208;2023-03-21T11:37:52;101378.72;;;16.26;44.58
21706;BME280;11014;53.076;18.208;2023-03-21T11:40:24;101380.78;;;16.19;44.17
21706;BME280;11014;53.076;18.208;2023-03-21T11:45:28;101389.56;;;16.26;45.21
21706;BME280;11014;53.076;18.208;2023-03-21T11:47:59;101375.41;;;16.41;44.56
21706;BME280;11014;53.076;18.208;2023-03-21T11:50:34;101370.94;;;16.51;44.54
21706;BME280;11014;53.076;18.208;2023-03-21T11:59:12;101371.69;;;16.47;44.38
21706;BME280;11014;53.076;18.208;2023-03-21T12:01:57;101360.28;;;16.67;44.83
21706;BME280;11014;53.076;18.208;2023-03-21T12:05:04;101360.13;;;17.00;43.83
21706;BME280;11014;53.076;18.208;2023-03-21T12:07:58;101358.75;;;17.24;43.07
21706;BME280;11014;53.076;18.208;2023-03-21T12:10:37;101361.38;;;17.67;42.53
21706;BME280;11014;53.076;18.208;2023-03-21T12:21:57;101357.00;;;18.03;42.13
21706;BME280;11014;53.076;18.208;2023-03-21T12:24:37;101347.63;;;18.21;41.85
21706;BME280;11014;53.076;18.208;2023-03-21T12:36:26;101342.06;;;17.37;43.17
21706;BME280;11014;53.076;18.208;2023-03-21T12:39:49;101335.38;;;17.50;41.78
21706;BME280;11014;53.076;18.208;2023-03-21T12:45:07;101325.88;;;17.47;41.54
21706;BME280;11014;53.076;18.208;2023-03-21T12:47:46;101321.53;;;17.51;41.61
21706;BME280;11014;53.076;18.208;2023-03-21T12:50:30;101323.97;;;17.48;42.01
21706;BME280;11014;53.076;18.208;2023-03-21T12:53:23;101326.81;;;17.31;41.71
21706;BME280;11014;53.076;18.208;2023-03-21T12:56:00;101330.00;;;17.23;42.57
21706;BME280;11014;53.076;18.208;2023-03-21T13:01:50;101338.38;;;16.95;44.45
21706;BME280;11014;53.076;18.208;2023-03-21T13:04:40;101333.75;;;16.69;44.51
21706;BME280;11014;53.076;18.208;2023-03-21T13:07:17;101325.47;;;16.58;45.16
21706;BME280;11014;53.076;18.208;2023-03-21T13:09:48;101331.84;;;16.47;45.60
21706;BME280;11014;53.076;18.208;2023-03-21T13:12:32;101330.25;;;16.51;45.73
21706;BME280;11014;53.076;18.208;2023-03-21T13:15:18;101328.03;;;16.48;45.70
21706;BME280;11014;53.076;18.208;2023-03-21T13:21:01;101318.19;;;16.42;45.74
21706;BME280;11014;53.076;18.208;2023-03-21T13:23:36;101321.00;;;16.47;45.72
21706;BME280;11014;53.076;18.208;2023-03-21T13:26:09;101321.41;;;16.39;45.37
21706;BME280;11014;53.076;18.208;2023-03-21T13:28:40;101314.31;;;16.33;45.67
21706;BME280;11014;53.076;18.208;2023-03-21T13:31:20;101314.81;;;16.30;45.90
21706;BME280;11014;53.076;18.208;2023-03-21T13:33:54;101307.63;;;16.41;45.08
21706;BME280;11014;53.076;18.208;2023-03-21T13:36:28;101314.13;;;16.62;45.86
21706;BME280;11014;53.076;18.208;2023-03-21T13:39:03;101305.16;;;16.83;44.53
21706;BME280;11014;53.076;18.208;2023-03-21T13:41:38;101303.88;;;17.17;44.08
21706;BME280;11014;53.076;18.208;2023-03-21T13:44:43;101296.84;;;17.90;43.43
21706;BME280;11014;53.076;18.208;2023-03-21T13:47:39;101297.81;;;18.77;41.76
21706;BME280;11014;53.076;18.208;2023-03-21T13:50:25;101295.72;;;19.30;40.54
21706;BME280;11014;53.076;18.208;2023-03-21T13:55:38;101290.28;;;19.80;39.81
21706;BME280;11014;53.076;18.208;2023-03-21T14:03:49;101273.84;;;21.18;37.27
21706;BME280;11014;53.076;18.208;2023-03-21T14:06:18;101282.75;;;20.95;37.30
21706;BME280;11014;53.076;18.208;2023-03-21T14:08:47;101286.72;;;20.69;37.52
21706;BME280;11014;53.076;18.208;2023-03-21T14:11:18;101274.00;;;20.44;37.08
21706;BME280;11014;53.076;18.208;2023-03-21T14:13:47;101281.50;;;20.14;37.44
21706;BME280;11014;53.076;18.208;2023-03-21T14:16:19;101266.78;;;20.04;37.73
21706;BME280;11014;53.076;18.208;2023-03-21T14:18:55;101269.47;;;20.15;37.54
21706;BME280;11014;53.076;18.208;2023-03-21T14:21:27;101271.69;;;20.02;36.98
21706;BME280;11014;53.076;18.208;2023-03-21T14:24:06;101266.25;;;19.92;37.73
21706;BME280;11014;53.076;18.208;2023-03-21T14:26:43;101272.81;;;19.81;37.69
21706;BME280;11014;53.076;18.208;2023-03-21T14:29:32;101271.44;;;19.84;38.67
21706;BME280;11014;53.076;18.208;2023-03-21T14:32:03;101277.22;;;19.72;38.61
21706;BME280;11014;53.076;18.208;2023-03-21T14:34:34;101260.88;;;19.72;38.26
21706;BME280;11014;53.076;18.208;2023-03-21T14:37:06;101260.69;;;20.33;37.39
21706;BME280;11014;53.076;18.208;2023-03-21T14:39:35;101252.34;;;20.68;37.02
21706;BME280;11014;53.076;18.208;2023-03-21T14:42:10;101249.88;;;20.66;36.27
21706;BME280;11014;53.076;18.208;2023-03-21T14:44:41;101243.19;;;20.39;36.66
21706;BME280;11014;53.076;18.208;2023-03-21T14:47:27;101249.28;;;20.16;37.24
21706;BME280;11014;53.076;18.208;2023-03-21T14:49:57;101251.53;;;19.93;37.53
21706;BME280;11014;53.076;18.208;2023-03-21T14:52:30;101254.28;;;19.78;36.74
21706;BME280;11014;53.076;18.208;2023-03-21T14:55:12;101259.25;;;19.61;37.45
21706;BME280;11014;53.076;18.208;2023-03-21T14:57:44;101259.00;;;19.42;37.36
21706;BME280;11014;53.076;18.208;2023-03-21T15:00:25;101252.72;;;19.42;37.41
21706;BME280;11014;53.076;18.208;2023-03-21T15:02:56;101250.56;;;19.39;37.89
21706;BME280;11014;53.076;18.208;2023-03-21T15:05:31;101246.19;;;19.38;37.66
21706;BME280;11014;53.076;18.208;2023-03-21T15:08:06;101240.44;;;19.55;37.25
21706;BME280;11014;53.076;18.208;2023-03-21T15:10:35;101246.19;;;19.53;37.11